Terminal Aerodrome Forecast
Issued by NWS Jackson, MS

Home | Current Version | Previous Version | Text Only | Print | Product List | Glossary On
Versions: 1 2 3 4 5 6 7 8 9 10 11 12
000
FTUS44 KJAN 270547
TAFGLH
TAF
KGLH 270547Z 2706/2806 15003KT P6SM BKN040 BKN080
     FM271100 15005KT 6SM BR VCSH BKN013
     FM271400 16004KT P6SM VCSH OVC015
     FM271800 20006KT P6SM VCTS SCT025 BKN035CB
     FM280100 23010KT P6SM SCT025 BKN050=

USA.gov is the U.S. government's official web portal to all federal, state and local government web resources and services.